createdAt,value
2019-03-01T00:01:20.277Z,5.30
2019-03-01T00:03:51.849Z,5.40
2019-03-01T00:06:22.445Z,5.40
2019-03-01T00:09:33.918Z,5.40
2019-03-01T00:12:30.983Z,5.40
2019-03-01T00:15:20.194Z,5.50
2019-03-01T00:18:44.660Z,5.50
2019-03-01T00:21:39.646Z,5.50
2019-03-01T00:24:19.419Z,5.50
2019-03-01T00:27:24.211Z,5.50
2019-03-01T00:30:19.951Z,5.50
2019-03-01T00:32:58.952Z,5.50
2019-03-01T00:36:10.229Z,5.40
2019-03-01T00:39:04.936Z,5.50
2019-03-01T00:41:43.176Z,5.50
2019-03-01T00:44:42.580Z,5.40
2019-03-01T00:47:09.912Z,5.40
2019-03-01T00:49:37.123Z,5.40
2019-03-01T00:52:04.375Z,5.40
2019-03-01T00:54:31.574Z,5.40
2019-03-01T00:56:58.648Z,5.40
2019-03-01T00:59:25.753Z,5.40
2019-03-01T01:01:53.153Z,5.40
2019-03-01T01:04:20.244Z,5.50
2019-03-01T01:06:47.506Z,5.50
2019-03-01T01:09:15.477Z,5.50
2019-03-01T01:11:42.494Z,5.40
2019-03-01T01:14:09.575Z,5.40
2019-03-01T01:16:36.551Z,5.40
2019-03-01T01:19:03.534Z,5.30
2019-03-01T01:21:30.795Z,5.30
2019-03-01T01:23:58.129Z,5.30
2019-03-01T01:26:25.228Z,5.30
2019-03-01T01:28:52.192Z,5.30
2019-03-01T01:31:19.351Z,5.30
2019-03-01T01:33:46.334Z,5.20
2019-03-01T01:36:13.732Z,5.30
2019-03-01T01:38:41.339Z,5.30
2019-03-01T01:41:08.641Z,5.30
2019-03-01T01:43:36.128Z,5.20
2019-03-01T01:46:03.377Z,5.20
2019-03-01T01:48:30.431Z,5.30
2019-03-01T01:51:00.160Z,5.20
2019-03-01T01:53:27.419Z,5.30
2019-03-01T01:55:54.458Z,5.30
2019-03-01T01:58:21.923Z,5.30
2019-03-01T02:00:49.263Z,5.30
2019-03-01T02:03:16.211Z,5.30
2019-03-01T02:05:44.642Z,5.30
2019-03-01T02:08:11.639Z,5.30
2019-03-01T02:10:38.810Z,5.30
2019-03-01T02:13:05.903Z,5.30
2019-03-01T02:15:32.883Z,5.30
2019-03-01T02:18:00.128Z,5.40
2019-03-01T02:20:27.253Z,5.50
2019-03-01T02:22:55.066Z,5.50
2019-03-01T02:25:25.171Z,5.50
2019-03-01T02:27:52.608Z,5.50
2019-03-01T02:30:22.021Z,5.50
2019-03-01T02:32:49.844Z,5.40
2019-03-01T02:35:19.048Z,5.40
2019-03-01T02:37:46.189Z,5.40
2019-03-01T02:40:15.943Z,5.40
2019-03-01T02:42:43.317Z,5.40
2019-03-01T02:45:13.056Z,5.40
2019-03-01T02:47:40.216Z,5.40
2019-03-01T02:50:08.276Z,5.40
2019-03-01T02:52:36.314Z,5.50
2019-03-01T02:55:03.803Z,5.50
2019-03-01T02:57:31.117Z,5.50
2019-03-01T02:59:58.529Z,5.50
2019-03-01T03:02:26.026Z,5.60
2019-03-01T03:04:53.811Z,5.50
2019-03-01T03:07:26.584Z,5.50
2019-03-01T03:09:54.045Z,5.50
2019-03-01T03:12:21.177Z,5.50
2019-03-01T03:14:48.217Z,5.60
2019-03-01T03:17:16.008Z,5.60
2019-03-01T03:19:43.078Z,5.50
2019-03-01T03:22:10.135Z,5.50
2019-03-01T03:24:37.163Z,5.60
2019-03-01T03:27:04.220Z,5.50
2019-03-01T03:29:31.421Z,5.50
2019-03-01T03:31:58.718Z,5.40
2019-03-01T03:34:26.091Z,5.50
2019-03-01T03:36:53.295Z,5.40
2019-03-01T03:39:20.503Z,5.50
2019-03-01T03:41:47.733Z,5.50
2019-03-01T03:44:15.513Z,5.40
2019-03-01T03:46:43.857Z,5.40
2019-03-01T03:49:10.920Z,5.50
2019-03-01T03:51:38.308Z,5.50
2019-03-01T03:54:05.306Z,5.50
2019-03-01T03:56:32.275Z,5.40
2019-03-01T03:58:59.572Z,5.50
2019-03-01T04:01:27.272Z,5.50
2019-03-01T04:03:54.894Z,5.40
2019-03-01T04:06:23.115Z,5.50
2019-03-01T04:08:50.257Z,5.40
2019-03-01T04:11:17.442Z,5.40
2019-03-01T04:13:44.776Z,5.40
2019-03-01T04:16:11.777Z,5.30
2019-03-01T04:18:39.432Z,5.30
2019-03-01T04:21:06.591Z,5.30
2019-03-01T04:23:33.865Z,5.30
2019-03-01T04:26:00.981Z,5.30
2019-03-01T04:28:27.965Z,5.30
2019-03-01T04:30:55.318Z,5.30
2019-03-01T04:33:22.330Z,5.40
2019-03-01T04:35:49.430Z,5.40
2019-03-01T04:38:16.670Z,5.40
2019-03-01T04:40:43.709Z,5.30
2019-03-01T04:43:10.730Z,5.30
2019-03-01T04:45:38.148Z,5.30
2019-03-01T04:48:05.257Z,5.30
2019-03-01T04:50:32.207Z,5.30
2019-03-01T04:52:59.210Z,5.30
2019-03-01T04:55:26.326Z,5.30
2019-03-01T04:57:53.348Z,5.30
2019-03-01T05:00:21.881Z,5.20
2019-03-01T05:02:49.078Z,5.20
2019-03-01T05:05:16.634Z,5.30
2019-03-01T05:07:43.875Z,5.20
2019-03-01T05:10:11.219Z,5.20
2019-03-01T05:12:38.638Z,5.20
2019-03-01T05:15:07.805Z,5.20
2019-03-01T05:17:34.771Z,5.20
2019-03-01T05:20:01.900Z,5.30
2019-03-01T05:22:29.250Z,5.30
2019-03-01T05:24:56.326Z,5.30
2019-03-01T05:27:23.656Z,5.30
2019-03-01T05:29:50.998Z,5.30
2019-03-01T05:32:18.798Z,5.30
2019-03-01T05:34:45.856Z,5.20
2019-03-01T05:37:12.915Z,5.20
2019-03-01T05:39:40.142Z,5.10
2019-03-01T05:42:07.487Z,5.10
2019-03-01T05:44:34.823Z,5.00
2019-03-01T05:47:01.821Z,5.10
2019-03-01T05:49:28.931Z,5.10
2019-03-01T05:51:56.035Z,5.10
2019-03-01T05:54:23.384Z,5.10
2019-03-01T05:56:51.030Z,5.00
2019-03-01T05:59:20.751Z,5.00
2019-03-01T06:02:26.699Z,5.00
2019-03-01T06:04:57.536Z,5.00
2019-03-01T06:07:46.379Z,5.00
2019-03-01T06:10:40.356Z,5.00
2019-03-01T06:13:40.724Z,5.00
2019-03-01T06:16:46.277Z,4.90
2019-03-01T06:19:39.823Z,4.80
2019-03-01T06:22:34.741Z,4.80
2019-03-01T06:25:46.449Z,4.70
2019-03-01T06:28:25.395Z,4.80
2019-03-01T06:31:35.206Z,4.80
2019-03-01T06:34:19.856Z,4.80
2019-03-01T06:37:44.383Z,4.70
2019-03-01T06:40:28.020Z,4.70
2019-03-01T06:44:01.628Z,4.70
2019-03-01T06:46:37.572Z,4.70
2019-03-01T06:49:30.474Z,4.60
2019-03-01T06:51:57.580Z,4.70
2019-03-01T06:54:24.751Z,4.70
2019-03-01T06:56:52.044Z,4.70
2019-03-01T06:59:19.160Z,4.70
2019-03-01T07:01:46.759Z,4.70
2019-03-01T07:04:20.605Z,4.70
2019-03-01T07:06:47.863Z,4.70
2019-03-01T07:09:15.511Z,4.70
2019-03-01T07:11:43.377Z,4.60
2019-03-01T07:14:10.873Z,4.60
2019-03-01T07:16:37.984Z,4.70
2019-03-01T07:19:05.558Z,4.70
2019-03-01T07:21:32.655Z,4.80
2019-03-01T07:23:59.732Z,4.70
2019-03-01T07:26:27.404Z,4.70
2019-03-01T07:28:55.271Z,4.70
2019-03-01T07:31:22.958Z,4.70
2019-03-01T07:33:50.386Z,4.60
2019-03-01T07:36:17.581Z,4.60
2019-03-01T07:38:44.723Z,4.60
2019-03-01T07:41:14.801Z,4.60
2019-03-01T07:43:42.282Z,4.60
2019-03-01T07:46:12.142Z,4.50
2019-03-01T07:48:39.499Z,4.50
2019-03-01T07:51:06.537Z,4.50
2019-03-01T07:53:35.650Z,4.50
2019-03-01T07:56:04.005Z,4.50
2019-03-01T07:58:31.717Z,4.50
2019-03-01T08:00:58.827Z,4.50
2019-03-01T08:03:25.803Z,4.60
2019-03-01T08:05:52.810Z,4.50
2019-03-01T08:08:20.615Z,4.50
2019-03-01T08:10:48.111Z,4.50
2019-03-01T08:13:17.582Z,4.40
2019-03-01T08:15:44.963Z,4.40
2019-03-01T08:18:13.002Z,4.40
2019-03-01T08:20:40.010Z,4.50
2019-03-01T08:23:07.168Z,4.50
2019-03-01T08:25:34.485Z,4.30
2019-03-01T08:28:01.799Z,4.20
2019-03-01T08:30:29.121Z,4.10
2019-03-01T08:32:56.200Z,4.00
2019-03-01T08:35:25.328Z,4.00
2019-03-01T08:37:53.510Z,4.00
2019-03-01T08:40:21.480Z,4.20
2019-03-01T08:42:48.861Z,4.20
2019-03-01T08:45:16.100Z,4.30
2019-03-01T08:47:43.470Z,4.30
2019-03-01T08:50:12.775Z,4.40
2019-03-01T08:52:40.473Z,4.30
2019-03-01T08:55:09.946Z,4.20
2019-03-01T08:57:44.064Z,4.20
2019-03-01T09:00:10.650Z,4.30
2019-03-01T09:02:38.453Z,4.30
2019-03-01T09:05:08.919Z,4.50
2019-03-01T09:07:35.864Z,4.50
2019-03-01T09:10:03.524Z,4.60
2019-03-01T09:12:30.925Z,4.70
2019-03-01T09:14:58.363Z,4.70
2019-03-01T09:17:25.525Z,4.80
2019-03-01T09:19:53.141Z,4.70
2019-03-01T09:22:20.303Z,4.80
2019-03-01T09:24:49.535Z,4.80
2019-03-01T09:27:16.634Z,4.90
2019-03-01T09:29:43.817Z,4.90
2019-03-01T09:32:11.137Z,5.00
2019-03-01T09:34:38.132Z,4.90
2019-03-01T09:37:05.245Z,5.00
2019-03-01T09:39:32.735Z,4.90
2019-03-01T09:42:03.229Z,4.90
2019-03-01T09:44:28.942Z,4.80
2019-03-01T09:46:58.440Z,4.90
2019-03-01T09:49:25.272Z,4.90
2019-03-01T09:51:52.402Z,4.90
2019-03-01T09:54:19.499Z,5.00
2019-03-01T09:56:46.751Z,5.00
2019-03-01T09:59:13.806Z,5.10
2019-03-01T10:01:41.155Z,5.00
2019-03-01T10:04:08.474Z,4.90
2019-03-01T10:06:38.421Z,5.00
2019-03-01T10:09:09.800Z,5.10
2019-03-01T10:11:37.452Z,5.10
2019-03-01T10:14:04.793Z,5.10
2019-03-01T10:16:31.791Z,5.20
2019-03-01T10:18:58.837Z,5.30
2019-03-01T10:21:26.667Z,5.20
2019-03-01T10:23:53.942Z,5.20
2019-03-01T10:26:21.044Z,5.30
2019-03-01T10:28:48.450Z,5.30
2019-03-01T10:31:15.791Z,5.30
2019-03-01T10:33:43.009Z,5.40
2019-03-01T10:36:10.489Z,5.40
2019-03-01T10:38:37.638Z,5.40
2019-03-01T10:41:04.870Z,5.60
2019-03-01T10:43:33.219Z,5.70
2019-03-01T10:46:00.767Z,5.80
2019-03-01T10:48:28.286Z,5.80
2019-03-01T10:50:55.407Z,5.80
2019-03-01T10:53:22.469Z,5.90
2019-03-01T10:55:49.576Z,6.00
2019-03-01T10:58:16.901Z,6.10
2019-03-01T11:00:45.363Z,6.30
2019-03-01T11:03:12.383Z,6.30
2019-03-01T11:05:39.859Z,6.20
2019-03-01T11:08:08.216Z,6.10
2019-03-01T11:10:35.943Z,6.20
2019-03-01T11:13:04.561Z,6.30
2019-03-01T11:15:31.636Z,6.40
2019-03-01T11:17:58.860Z,6.60
2019-03-01T11:20:26.570Z,6.40
2019-03-01T11:22:53.701Z,6.40
2019-03-01T11:25:21.540Z,6.30
2019-03-01T11:27:49.048Z,6.30
2019-03-01T11:30:21.266Z,6.20
2019-03-01T11:32:49.285Z,6.20
2019-03-01T11:35:16.716Z,6.10
2019-03-01T11:37:44.671Z,6.30
2019-03-01T11:40:17.076Z,6.30
2019-03-01T11:42:44.367Z,6.40
2019-03-01T11:45:12.810Z,6.40
2019-03-01T11:47:40.241Z,6.60
2019-03-01T11:50:10.246Z,6.50
2019-03-01T11:52:37.611Z,6.50
2019-03-01T11:55:05.071Z,6.50
2019-03-01T11:57:32.148Z,6.60
2019-03-01T11:59:59.676Z,6.60
2019-03-01T12:02:26.675Z,6.70
2019-03-01T12:04:53.719Z,6.90
2019-03-01T12:07:20.848Z,7.00
2019-03-01T12:09:47.813Z,7.00
2019-03-01T12:12:14.918Z,7.00
2019-03-01T12:14:41.926Z,7.00
2019-03-01T12:17:09.236Z,7.00
2019-03-01T12:19:36.414Z,7.10
2019-03-01T12:22:03.664Z,7.20
2019-03-01T12:24:31.110Z,7.30
2019-03-01T12:26:58.648Z,7.20
2019-03-01T12:29:25.799Z,7.20
2019-03-01T12:31:52.882Z,7.20
2019-03-01T12:34:19.999Z,7.20
2019-03-01T12:36:47.322Z,7.20
2019-03-01T12:39:14.490Z,7.30
2019-03-01T12:41:41.559Z,7.40
2019-03-01T12:44:08.874Z,7.60
2019-03-01T12:46:36.023Z,7.70
2019-03-01T12:49:03.246Z,7.80
2019-03-01T12:51:30.759Z,7.90
2019-03-01T12:53:57.905Z,7.90
2019-03-01T12:56:25.077Z,7.80
2019-03-01T12:58:52.459Z,7.80
2019-03-01T13:01:19.473Z,7.80
2019-03-01T13:03:46.740Z,7.70
2019-03-01T13:06:14.083Z,7.70
2019-03-01T13:08:41.666Z,7.60
2019-03-01T13:11:08.764Z,7.60
2019-03-01T13:13:38.318Z,7.60
2019-03-01T13:16:05.643Z,7.70
2019-03-01T13:18:33.103Z,7.60
2019-03-01T13:21:00.769Z,7.60
2019-03-01T13:23:27.918Z,7.60
2019-03-01T13:25:55.344Z,7.60
2019-03-01T13:28:22.492Z,7.50
2019-03-01T13:30:49.658Z,7.60
2019-03-01T13:33:16.967Z,7.60
2019-03-01T13:35:45.000Z,7.70
2019-03-01T13:38:12.362Z,7.60
2019-03-01T13:40:39.564Z,7.60
2019-03-01T13:43:06.799Z,7.70
2019-03-01T13:45:33.847Z,7.60
2019-03-01T13:48:03.142Z,7.70
2019-03-01T13:50:30.139Z,7.70
2019-03-01T13:52:57.952Z,7.70
2019-03-01T13:55:27.549Z,7.80
2019-03-01T13:57:54.622Z,7.60
2019-03-01T14:00:22.248Z,7.60
2019-03-01T14:02:49.993Z,7.70
2019-03-01T14:05:18.639Z,7.70
2019-03-01T14:07:46.118Z,7.60
2019-03-01T14:10:15.188Z,7.70
2019-03-01T14:12:42.675Z,7.60
2019-03-01T14:15:12.314Z,7.50
2019-03-01T14:17:39.624Z,7.50
2019-03-01T14:20:09.623Z,7.50
2019-03-01T14:22:36.992Z,7.40
2019-03-01T14:25:05.261Z,7.40
2019-03-01T14:27:33.024Z,7.40
2019-03-01T14:30:00.273Z,7.40
2019-03-01T14:32:27.693Z,7.30
2019-03-01T14:34:54.843Z,7.30
2019-03-01T14:37:21.995Z,7.30
2019-03-01T14:39:49.554Z,7.40
2019-03-01T14:42:17.014Z,7.50
2019-03-01T14:44:44.024Z,7.50
2019-03-01T14:47:13.079Z,7.40
2019-03-01T14:49:39.965Z,7.40
2019-03-01T14:52:06.975Z,7.40
2019-03-01T14:54:34.082Z,7.30
2019-03-01T14:57:10.696Z,7.20
2019-03-01T14:59:49.258Z,7.20
2019-03-01T15:02:50.543Z,7.10
2019-03-01T15:05:19.806Z,7.20
2019-03-01T15:07:46.720Z,7.20
2019-03-01T15:10:14.058Z,7.30
2019-03-01T15:12:41.303Z,7.20
2019-03-01T15:15:09.706Z,7.20
2019-03-01T15:17:37.236Z,7.10
2019-03-01T15:20:07.047Z,7.10
2019-03-01T15:22:34.227Z,7.10
2019-03-01T15:25:01.351Z,7.10
2019-03-01T15:27:28.429Z,7.20
2019-03-01T15:29:56.072Z,7.20
2019-03-01T15:32:23.291Z,7.20
2019-03-01T15:34:50.397Z,7.20
2019-03-01T15:37:17.565Z,7.40
2019-03-01T15:39:45.344Z,7.40
2019-03-01T15:42:14.264Z,7.30
2019-03-01T15:44:41.873Z,7.30
2019-03-01T15:47:09.001Z,7.20
2019-03-01T15:49:36.139Z,7.20
2019-03-01T15:52:03.769Z,7.20
2019-03-01T15:54:32.455Z,7.40
2019-03-01T15:57:01.090Z,7.50
2019-03-01T15:59:28.112Z,7.40
2019-03-01T16:01:55.355Z,7.40
2019-03-01T16:04:22.822Z,7.40
2019-03-01T16:06:55.206Z,7.30
2019-03-01T16:09:21.812Z,7.20
2019-03-01T16:11:47.764Z,7.10
2019-03-01T16:14:14.786Z,7.00
2019-03-01T16:16:41.834Z,7.00
2019-03-01T16:19:11.122Z,7.00
2019-03-01T16:21:39.784Z,6.90
2019-03-01T16:24:08.153Z,7.00
2019-03-01T16:26:36.405Z,7.10
2019-03-01T16:29:07.222Z,7.00
2019-03-01T16:31:34.199Z,6.90
2019-03-01T16:34:04.356Z,6.90
2019-03-01T16:36:38.299Z,6.90
2019-03-01T16:39:09.531Z,6.80
2019-03-01T16:41:39.674Z,6.80
2019-03-01T16:44:18.945Z,6.70
2019-03-01T16:46:46.679Z,6.70
2019-03-01T16:49:14.451Z,6.70
2019-03-01T16:51:42.261Z,6.60
2019-03-01T16:54:15.419Z,6.60
2019-03-01T16:56:40.744Z,6.60
2019-03-01T16:59:08.411Z,6.60
2019-03-01T17:01:36.561Z,6.60
2019-03-01T17:04:04.297Z,6.70
2019-03-01T17:06:33.551Z,6.60
2019-03-01T17:09:01.560Z,6.60
2019-03-01T17:11:31.558Z,6.60
2019-03-01T17:14:02.462Z,6.50
2019-03-01T17:16:29.865Z,6.50
2019-03-01T17:18:57.825Z,6.40
2019-03-01T17:21:25.625Z,6.40
2019-03-01T17:23:54.684Z,6.50
2019-03-01T17:26:26.310Z,6.50
2019-03-01T17:28:52.575Z,6.50
2019-03-01T17:31:23.242Z,6.50
2019-03-01T17:33:50.062Z,6.50
2019-03-01T17:36:18.050Z,6.50
2019-03-01T17:38:46.198Z,6.50
2019-03-01T17:41:13.867Z,6.50
2019-03-01T17:43:40.871Z,6.50
2019-03-01T17:46:08.305Z,6.40
2019-03-01T17:48:35.403Z,6.50
2019-03-01T17:51:02.440Z,6.40
2019-03-01T17:53:29.447Z,6.50
2019-03-01T17:55:56.407Z,6.40
2019-03-01T17:58:23.399Z,6.40
2019-03-01T18:00:50.348Z,6.40
2019-03-01T18:03:17.350Z,6.40
2019-03-01T18:05:44.434Z,6.40
2019-03-01T18:08:11.511Z,6.30
2019-03-01T18:10:38.718Z,6.30
2019-03-01T18:13:06.167Z,6.40
2019-03-01T18:15:33.139Z,6.30
2019-03-01T18:18:00.112Z,6.30
2019-03-01T18:20:27.614Z,6.20
2019-03-01T18:22:54.694Z,6.20
2019-03-01T18:25:22.763Z,6.20
2019-03-01T18:27:53.082Z,6.10
2019-03-01T18:30:21.004Z,6.10
2019-03-01T18:32:48.087Z,6.00
2019-03-01T18:35:15.382Z,6.00
2019-03-01T18:37:42.520Z,6.00
2019-03-01T18:40:09.955Z,6.00
2019-03-01T18:42:38.116Z,6.10
2019-03-01T18:45:08.234Z,6.10
2019-03-01T18:47:35.532Z,6.10
2019-03-01T18:50:04.388Z,6.00
2019-03-01T18:52:32.489Z,6.00
2019-03-01T18:54:59.467Z,6.00
2019-03-01T18:57:26.814Z,6.00
2019-03-01T18:59:56.482Z,6.00
2019-03-01T19:02:24.391Z,6.00
2019-03-01T19:04:51.812Z,6.00
2019-03-01T19:07:18.785Z,6.00
2019-03-01T19:09:48.751Z,6.10
2019-03-01T19:12:15.021Z,6.10
2019-03-01T19:14:42.740Z,6.10
2019-03-01T19:17:10.265Z,6.10
2019-03-01T19:19:37.326Z,6.10
2019-03-01T19:22:04.664Z,6.00
2019-03-01T19:24:32.017Z,6.10
2019-03-01T19:26:59.184Z,6.10
2019-03-01T19:29:26.463Z,6.00
2019-03-01T19:31:53.668Z,6.00
2019-03-01T19:34:20.842Z,6.10
2019-03-01T19:36:50.407Z,6.00
2019-03-01T19:39:21.130Z,6.00
2019-03-01T19:41:48.433Z,6.00
2019-03-01T19:44:15.437Z,6.10
2019-03-01T19:46:42.689Z,6.20
2019-03-01T19:49:12.854Z,6.10
2019-03-01T19:51:38.732Z,6.20
2019-03-01T19:54:08.282Z,6.20
2019-03-01T19:56:35.528Z,6.20
2019-03-01T19:59:03.009Z,6.30
2019-03-01T20:01:30.079Z,6.20
2019-03-01T20:03:57.209Z,6.10
2019-03-01T20:06:24.294Z,6.10
2019-03-01T20:08:51.372Z,6.00
2019-03-01T20:11:18.623Z,6.00
2019-03-01T20:13:45.761Z,6.10
2019-03-01T20:16:13.033Z,6.10
2019-03-01T20:18:41.768Z,6.10
2019-03-01T20:21:10.485Z,6.10
2019-03-01T20:23:38.087Z,6.10
2019-03-01T20:26:05.115Z,6.00
2019-03-01T20:28:32.284Z,6.10
2019-03-01T20:31:01.554Z,6.00
2019-03-01T20:33:28.183Z,6.10
2019-03-01T20:35:55.470Z,6.00
2019-03-01T20:38:22.515Z,5.90
2019-03-01T20:40:49.599Z,5.90
2019-03-01T20:43:16.659Z,5.90
2019-03-01T20:45:43.782Z,6.00
2019-03-01T20:48:10.958Z,5.90
2019-03-01T20:50:38.051Z,5.90
2019-03-01T20:53:05.325Z,5.90
2019-03-01T20:55:33.113Z,5.90
2019-03-01T20:58:03.102Z,5.80
2019-03-01T21:00:30.458Z,5.80
2019-03-01T21:02:57.707Z,5.80
2019-03-01T21:05:28.791Z,5.80
2019-03-01T21:07:54.892Z,5.80
2019-03-01T21:10:23.859Z,5.90
2019-03-01T21:12:51.635Z,5.90
2019-03-01T21:15:21.380Z,5.80
2019-03-01T21:17:48.901Z,5.80
2019-03-01T21:20:19.590Z,5.90
2019-03-01T21:22:46.936Z,5.80
2019-03-01T21:25:14.250Z,5.90
2019-03-01T21:27:41.332Z,5.80
2019-03-01T21:30:15.051Z,5.80
2019-03-01T21:32:42.116Z,5.80
2019-03-01T21:35:10.475Z,5.80
2019-03-01T21:37:39.371Z,5.80
2019-03-01T21:40:07.290Z,5.70
2019-03-01T21:42:34.865Z,5.80
2019-03-01T21:45:02.529Z,5.80
2019-03-01T21:47:29.871Z,5.80
2019-03-01T21:49:59.961Z,5.80
2019-03-01T21:52:29.589Z,5.80
2019-03-01T21:54:55.760Z,5.80
2019-03-01T21:57:22.920Z,5.80
2019-03-01T21:59:52.486Z,5.80
2019-03-01T22:02:19.268Z,5.80
2019-03-01T22:04:46.345Z,5.80
2019-03-01T22:07:13.344Z,5.80
2019-03-01T22:09:40.562Z,5.80
2019-03-01T22:12:07.787Z,5.70
2019-03-01T22:14:34.867Z,5.80
2019-03-01T22:17:01.898Z,5.80
2019-03-01T22:19:30.569Z,5.80
2019-03-01T22:21:58.764Z,5.70
2019-03-01T22:24:27.382Z,5.70
2019-03-01T22:26:54.562Z,5.70
2019-03-01T22:29:21.887Z,5.70
2019-03-01T22:31:50.130Z,5.70
2019-03-01T22:34:17.217Z,5.70
2019-03-01T22:36:44.835Z,5.70
2019-03-01T22:39:13.648Z,5.80
2019-03-01T22:41:41.105Z,5.80
2019-03-01T22:44:08.234Z,5.70
2019-03-01T22:46:35.484Z,5.80
2019-03-01T22:49:02.819Z,5.70
2019-03-01T22:51:29.849Z,5.70
2019-03-01T22:53:57.486Z,5.70
2019-03-01T22:56:24.584Z,5.80
2019-03-01T22:58:51.914Z,5.80
2019-03-01T23:01:32.667Z,5.80
2019-03-01T23:04:01.042Z,5.80
2019-03-01T23:06:28.827Z,5.80
2019-03-01T23:08:56.146Z,5.80
2019-03-01T23:11:23.525Z,5.80
2019-03-01T23:13:52.763Z,5.70
2019-03-01T23:16:19.734Z,5.70
2019-03-01T23:18:56.382Z,5.70
2019-03-01T23:21:18.224Z,5.70
2019-03-01T23:23:48.323Z,5.70
2019-03-01T23:26:18.646Z,5.70
2019-03-01T23:28:44.726Z,5.60
2019-03-01T23:31:12.895Z,5.60
2019-03-01T23:33:39.888Z,5.60
2019-03-01T23:36:07.011Z,5.60
2019-03-01T23:38:34.115Z,5.60
2019-03-01T23:41:01.198Z,5.60
2019-03-01T23:43:30.816Z,5.60
2019-03-01T23:45:57.184Z,5.60
2019-03-01T23:48:24.503Z,5.60
2019-03-01T23:50:51.504Z,5.70
2019-03-01T23:53:18.539Z,5.60
2019-03-01T23:55:46.204Z,5.60
2019-03-01T23:58:15.878Z,5.60
